Time;durP1;ratioP1;P1;durP2;ratioP2;P2;SDS_P1;SDS_P2;PMS_P1;PMS_P2;Temp;Humidity;BMP_temperature;BMP_pressure;BME280_temperature;BME280_humidity;BME280_pressure;Samples;Min_cycle;Max_cycle;Signal;HPM_P1;HPM_P2
2023/05/19 00:02:24;;;;;;;7.00;2.35;;;;;;;;;;5016136;28;20049;-78
2023/05/19 00:04:50;;;;;;;5.35;1.88;;;;;;;;;;5019155;28;20088;-78
2023/05/19 00:07:19;;;;;;;7.22;1.63;;;;;;;;;;5018502;28;20022;-77
2023/05/19 00:09:44;;;;;;;7.63;2.17;;;;;;;;;;5015246;28;20065;-78
2023/05/19 00:12:10;;;;;;;5.28;1.80;;;;;;;;;;5018765;28;20034;-78
2023/05/19 00:14:35;;;;;;;6.63;1.88;;;;;;;;;;5015323;28;20423;-78
2023/05/19 00:17:00;;;;;;;4.63;1.88;;;;;;;;;;5017482;28;20032;-78
2023/05/19 00:19:30;;;;;;;6.15;1.85;;;;;;;;;;5015675;28;20559;-78
2023/05/19 00:21:56;;;;;;;8.98;1.88;;;;;;;;;;5018854;28;20042;-78
2023/05/19 00:24:21;;;;;;;5.38;2.17;;;;;;;;;;5017014;28;20068;-78
2023/05/19 00:26:46;;;;;;;7.78;1.85;;;;;;;;;;5015339;28;20045;-78
2023/05/19 00:29:12;;;;;;;3.78;1.77;;;;;;;;;;5022803;28;20027;-78
2023/05/19 00:31:37;;;;;;;6.38;2.25;;;;;;;;;;5016535;28;20048;-77
2023/05/19 00:34:02;;;;;;;3.30;1.60;;;;;;;;;;5016056;28;20100;-78
2023/05/19 00:36:27;;;;;;;4.53;1.70;;;;;;;;;;5016540;28;20034;-78
2023/05/19 00:38:54;;;;;;;5.45;1.73;;;;;;;;;;5016612;28;20026;-78
2023/05/19 00:41:19;;;;;;;6.00;1.90;;;;;;;;;;5018476;28;20042;-78
2023/05/19 00:43:45;;;;;;;5.85;1.58;;;;;;;;;;5016906;28;20038;-78
2023/05/19 00:46:10;;;;;;;5.90;1.83;;;;;;;;;;5015642;28;20485;-78
2023/05/19 00:48:35;;;;;;;4.50;1.70;;;;;;;;;;5021731;28;20041;-78
2023/05/19 00:51:03;;;;;;;4.45;1.60;;;;;;;;;;5016651;28;20034;-78
2023/05/19 00:53:29;;;;;;;7.25;1.98;;;;;;;;;;5015906;28;20380;-78
2023/05/19 00:55:55;;;;;;;5.43;1.92;;;;;;;;;;5015535;28;20042;-77
2023/05/19 00:58:22;;;;;;;5.57;1.90;;;;;;;;;;5016552;28;20065;-78
2023/05/19 01:00:49;;;;;;;5.72;1.65;;;;;;;;;;5017243;28;20030;-78
2023/05/19 01:03:19;;;;;;;6.13;2.10;;;;;;;;;;5015760;28;20560;-77
2023/05/19 01:05:44;;;;;;;3.67;1.58;;;;;;;;;;5019042;28;20058;-78
2023/05/19 01:08:10;;;;;;;6.00;1.88;;;;;;;;;;5017668;28;20029;-77
2023/05/19 01:10:35;;;;;;;4.38;1.73;;;;;;;;;;5014253;28;20065;-78
2023/05/19 01:13:01;;;;;;;4.55;2.00;;;;;;;;;;5017848;28;20038;-78
2023/05/19 01:15:27;;;;;;;6.18;1.90;;;;;;;;;;5014547;28;20038;-78
2023/05/19 01:18:02;;;;;;;4.20;1.40;;;;;;;;;;5008607;28;20030;-78
2023/05/19 01:20:35;;;;;;;4.68;1.80;;;;;;;;;;5018577;28;20038;-77
2023/05/19 01:23:06;;;;;;;6.10;1.67;;;;;;;;;;5017693;28;20808;-78
2023/05/19 01:25:56;;;;;;;3.95;1.48;;;;;;;;;;5019637;28;20057;-77
2023/05/19 01:28:41;;;;;;;3.67;1.33;;;;;;;;;;5017865;28;20022;-77
2023/05/19 01:31:08;;;;;;;3.55;1.20;;;;;;;;;;5019918;28;20034;-78
2023/05/19 01:33:33;;;;;;;5.65;1.55;;;;;;;;;;5020169;28;20033;-78
2023/05/19 01:35:59;;;;;;;4.43;1.80;;;;;;;;;;5019149;28;20097;-77
2023/05/19 01:38:25;;;;;;;6.13;2.05;;;;;;;;;;5020495;28;20069;-78
2023/05/19 01:40:51;;;;;;;4.35;1.48;;;;;;;;;;5020338;28;20065;-78
2023/05/19 01:43:18;;;;;;;4.07;1.85;;;;;;;;;;5019586;28;20045;-78
2023/05/19 01:45:44;;;;;;;5.47;1.88;;;;;;;;;;5020837;28;20030;-78
2023/05/19 01:48:10;;;;;;;3.50;1.70;;;;;;;;;;5017690;28;20061;-78
2023/05/19 01:50:37;;;;;;;4.20;1.70;;;;;;;;;;5019952;28;20091;-78
2023/05/19 01:53:03;;;;;;;4.80;1.88;;;;;;;;;;5018071;28;20440;-78
2023/05/19 01:55:28;;;;;;;5.45;1.75;;;;;;;;;;5008703;28;20037;-78
2023/05/19 01:57:53;;;;;;;3.80;1.70;;;;;;;;;;5020929;28;20101;-78
2023/05/19 02:00:37;;;;;;;4.57;1.90;;;;;;;;;;5022596;28;20030;-78
2023/05/19 02:03:21;;;;;;;4.90;1.65;;;;;;;;;;5019833;28;20042;-78
2023/05/19 02:06:05;;;;;;;3.80;1.63;;;;;;;;;;5020138;28;20518;-78
2023/05/19 02:08:47;;;;;;;8.93;1.80;;;;;;;;;;5024974;28;20030;-78
2023/05/19 02:11:13;;;;;;;4.30;1.60;;;;;;;;;;5018876;28;20030;-78
2023/05/19 02:13:42;;;;;;;3.72;1.60;;;;;;;;;;5018611;28;20026;-78
2023/05/19 02:16:09;;;;;;;4.47;1.98;;;;;;;;;;5019905;28;20037;-78
2023/05/19 02:18:35;;;;;;;6.95;1.83;;;;;;;;;;5017627;28;20242;-78
2023/05/19 02:21:01;;;;;;;6.57;2.67;;;;;;;;;;5020819;28;20033;-78
2023/05/19 02:23:26;;;;;;;4.78;1.50;;;;;;;;;;5020878;28;20048;-78
2023/05/19 02:25:52;;;;;;;4.63;2.10;;;;;;;;;;5017098;28;20057;-78
2023/05/19 02:28:17;;;;;;;4.20;1.75;;;;;;;;;;5021039;28;20045;-78
2023/05/19 02:30:42;;;;;;;4.90;1.73;;;;;;;;;;5020758;28;20057;-77
2023/05/19 02:33:10;;;;;;;3.25;1.55;;;;;;;;;;5019528;28;20439;-77
2023/05/19 02:35:35;;;;;;;7.40;1.98;;;;;;;;;;5017077;28;20034;-78
2023/05/19 02:38:00;;;;;;;4.30;2.03;;;;;;;;;;5020184;28;20415;-78
2023/05/19 02:40:26;;;;;;;6.60;1.90;;;;;;;;;;5019027;28;20030;-78
2023/05/19 02:42:51;;;;;;;3.80;1.77;;;;;;;;;;5016779;28;20057;-78
2023/05/19 02:45:16;;;;;;;5.63;1.80;;;;;;;;;;5035212;23;20033;-76
2023/05/19 02:47:41;;;;;;;5.45;1.80;;;;;;;;;;5002726;28;20125;-75
2023/05/19 02:50:07;;;;;;;5.03;1.90;;;;;;;;;;5014893;28;20095;-75
2023/05/19 02:52:32;;;;;;;6.80;2.78;;;;;;;;;;5033268;28;20566;-76
2023/05/19 02:54:57;;;;;;;5.68;2.20;;;;;;;;;;5024042;28;20464;-76
2023/05/19 02:57:23;;;;;;;4.70;2.30;;;;;;;;;;5028160;28;20033;-76
2023/05/19 02:59:48;;;;;;;5.30;1.85;;;;;;;;;;5036382;28;20079;-75
2023/05/19 03:02:13;;;;;;;7.28;2.50;;;;;;;;;;5031851;28;20396;-78
2023/05/19 03:04:41;;;;;;;5.65;2.08;;;;;;;;;;5031823;28;20034;-77
2023/05/19 03:07:08;;;;;;;8.20;2.33;;;;;;;;;;5015146;28;20025;-77
2023/05/19 03:09:34;;;;;;;5.88;2.22;;;;;;;;;;5032739;28;20029;-77
2023/05/19 03:12:02;;;;;;;5.95;2.25;;;;;;;;;;5025344;28;20025;-77
2023/05/19 03:14:28;;;;;;;6.03;2.00;;;;;;;;;;5014831;28;20028;-77
2023/05/19 03:16:54;;;;;;;5.13;2.25;;;;;;;;;;5032305;28;21352;-77
2023/05/19 03:19:20;;;;;;;4.88;2.13;;;;;;;;;;5032543;28;20026;-77
2023/05/19 03:21:46;;;;;;;6.55;1.90;;;;;;;;;;5027068;28;20030;-77
2023/05/19 03:24:11;;;;;;;6.50;2.30;;;;;;;;;;5029668;28;20061;-78
2023/05/19 03:26:36;;;;;;;6.15;2.35;;;;;;;;;;5031246;28;20526;-77
2023/05/19 03:29:02;;;;;;;6.03;2.20;;;;;;;;;;5032329;28;20504;-78
2023/05/19 03:31:30;;;;;;;7.32;2.00;;;;;;;;;;5031271;28;20594;-77
2023/05/19 03:33:56;;;;;;;6.28;2.28;;;;;;;;;;5031174;28;20033;-77
2023/05/19 03:36:22;;;;;;;5.93;1.98;;;;;;;;;;5032407;28;20067;-78
2023/05/19 03:38:47;;;;;;;4.43;2.00;;;;;;;;;;5041816;28;20025;-78
2023/05/19 03:41:12;;;;;;;6.57;2.65;;;;;;;;;;5030921;28;20037;-77
2023/05/19 03:43:38;;;;;;;5.10;1.83;;;;;;;;;;5032256;28;20036;-78
2023/05/19 03:46:05;;;;;;;5.45;2.47;;;;;;;;;;5026980;28;20033;-78
2023/05/19 03:48:50;;;;;;;5.45;2.28;;;;;;;;;;5032318;28;20573;-77
2023/05/19 03:51:39;;;;;;;5.07;2.13;;;;;;;;;;5029195;28;20052;-78
2023/05/19 03:54:17;;;;;;;7.47;2.50;;;;;;;;;;5030783;28;20120;-77
2023/05/19 03:56:43;;;;;;;5.97;2.63;;;;;;;;;;5032226;28;20057;-77
2023/05/19 03:59:11;;;;;;;6.22;2.50;;;;;;;;;;5029933;28;20037;-77
2023/05/19 04:01:36;;;;;;;5.47;2.30;;;;;;;;;;5028086;28;20121;-77
2023/05/19 04:04:02;;;;;;;6.55;2.47;;;;;;;;;;5031900;28;20112;-77
2023/05/19 04:06:27;;;;;;;9.13;3.00;;;;;;;;;;5030589;28;20025;-78
2023/05/19 04:08:52;;;;;;;5.50;2.28;;;;;;;;;;5031629;28;20029;-78
2023/05/19 04:11:21;;;;;;;4.20;1.83;;;;;;;;;;5030553;28;20037;-77
2023/05/19 04:13:46;;;;;;;5.15;2.42;;;;;;;;;;5038473;28;20057;-78
2023/05/19 04:16:11;;;;;;;5.82;2.38;;;;;;;;;;5028703;28;20060;-77
2023/05/19 04:18:36;;;;;;;5.40;1.90;;;;;;;;;;5031564;28;20075;-77
2023/05/19 04:21:02;;;;;;;7.38;2.53;;;;;;;;;;5031394;28;20025;-78
2023/05/19 04:23:28;;;;;;;5.53;2.35;;;;;;;;;;5031608;28;20068;-78
2023/05/19 04:25:55;;;;;;;6.53;2.42;;;;;;;;;;5030288;28;20025;-78
2023/05/19 04:28:22;;;;;;;6.07;2.15;;;;;;;;;;5029130;28;20033;-78
2023/05/19 04:30:48;;;;;;;5.45;2.55;;;;;;;;;;5036554;28;20410;-77
2023/05/19 04:33:13;;;;;;;5.20;2.50;;;;;;;;;;5031369;28;20044;-78
2023/05/19 04:35:38;;;;;;;5.43;2.25;;;;;;;;;;5027530;28;20028;-77
2023/05/19 04:38:06;;;;;;;6.68;2.50;;;;;;;;;;5012935;28;20121;-78
2023/05/19 04:40:32;;;;;;;4.65;2.60;;;;;;;;;;5029874;28;20044;-77
2023/05/19 04:43:00;;;;;;;6.03;2.30;;;;;;;;;;5030130;28;20068;-77
2023/05/19 04:45:26;;;;;;;5.32;2.20;;;;;;;;;;5013434;28;20109;-78
2023/05/19 04:47:56;;;;;;;5.18;2.28;;;;;;;;;;5029912;28;20041;-77
2023/05/19 04:50:22;;;;;;;5.15;2.45;;;;;;;;;;5029753;28;20510;-77
2023/05/19 04:52:47;;;;;;;4.63;2.17;;;;;;;;;;5037913;28;20038;-78
2023/05/19 04:55:13;;;;;;;5.57;2.53;;;;;;;;;;5028877;28;20029;-79
2023/05/19 04:57:39;;;;;;;5.40;2.42;;;;;;;;;;5029857;28;20484;-78
2023/05/19 05:00:07;;;;;;;4.95;2.28;;;;;;;;;;5032810;28;20032;-78
2023/05/19 05:02:41;;;;;;;8.70;2.30;;;;;;;;;;5030005;28;20025;-77
2023/05/19 05:05:07;;;;;;;5.30;1.98;;;;;;;;;;5031864;28;20026;-78
2023/05/19 05:07:32;;;;;;;6.40;2.17;;;;;;;;;;5033934;28;20087;-77
2023/05/19 05:09:57;;;;;;;4.63;2.13;;;;;;;;;;5035000;28;20029;-77
2023/05/19 05:12:23;;;;;;;5.25;2.03;;;;;;;;;;5017358;28;20037;-77
2023/05/19 05:14:48;;;;;;;4.93;2.28;;;;;;;;;;5032522;28;20511;-77
2023/05/19 05:17:14;;;;;;;6.35;2.15;;;;;;;;;;5033855;28;20048;-78
2023/05/19 05:19:41;;;;;;;8.13;2.30;;;;;;;;;;5033457;28;20392;-78
2023/05/19 05:22:06;;;;;;;7.88;2.38;;;;;;;;;;5042078;28;20025;-78
2023/05/19 05:24:34;;;;;;;5.47;2.45;;;;;;;;;;5033608;28;20029;-78
2023/05/19 05:27:02;;;;;;;6.00;2.40;;;;;;;;;;5041490;28;20117;-77
2023/05/19 05:29:29;;;;;;;5.40;2.55;;;;;;;;;;5030363;28;20542;-78
2023/05/19 05:31:54;;;;;;;5.03;2.50;;;;;;;;;;5034134;28;20034;-78
2023/05/19 05:34:21;;;;;;;5.75;2.53;;;;;;;;;;5041354;28;20040;-77
2023/05/19 05:36:47;;;;;;;5.32;2.30;;;;;;;;;;5033342;28;20411;-78
2023/05/19 05:39:12;;;;;;;5.68;2.17;;;;;;;;;;5033181;28;20063;-78
2023/05/19 05:41:39;;;;;;;5.85;2.63;;;;;;;;;;5033354;28;20022;-78
2023/05/19 05:44:09;;;;;;;5.38;2.60;;;;;;;;;;5033392;28;20033;-78
2023/05/19 05:46:36;;;;;;;7.68;2.53;;;;;;;;;;5032429;28;20072;-78
2023/05/19 05:49:02;;;;;;;7.55;2.90;;;;;;;;;;5031346;28;20453;-78
2023/05/19 05:51:28;;;;;;;6.13;3.00;;;;;;;;;;5026325;28;20029;-78
2023/05/19 05:53:53;;;;;;;4.13;2.08;;;;;;;;;;5031583;28;20057;-78
2023/05/19 05:56:22;;;;;;;7.28;2.78;;;;;;;;;;5031854;28;20021;-78
2023/05/19 05:58:50;;;;;;;6.25;2.90;;;;;;;;;;5025320;28;20141;-78
2023/05/19 06:01:16;;;;;;;4.70;2.60;;;;;;;;;;5015296;28;20121;-78
2023/05/19 06:03:45;;;;;;;6.32;2.80;;;;;;;;;;5031820;28;20036;-78
2023/05/19 06:06:13;;;;;;;6.13;2.20;;;;;;;;;;5031702;28;20026;-78
2023/05/19 06:08:39;;;;;;;4.57;2.47;;;;;;;;;;5031585;28;20052;-78
2023/05/19 06:11:07;;;;;;;8.70;2.90;;;;;;;;;;5037069;28;20061;-78
2023/05/19 06:13:36;;;;;;;7.43;2.50;;;;;;;;;;5031701;28;20601;-78
2023/05/19 06:16:05;;;;;;;6.28;2.72;;;;;;;;;;5031203;28;20720;-78
2023/05/19 06:18:36;;;;;;;5.60;2.95;;;;;;;;;;5031522;28;20031;-78
2023/05/19 06:21:02;;;;;;;5.38;2.95;;;;;;;;;;5032629;28;20409;-78
2023/05/19 06:23:29;;;;;;;7.13;2.75;;;;;;;;;;5011038;28;20065;-78
2023/05/19 06:25:54;;;;;;;7.43;2.83;;;;;;;;;;5039358;28;20132;-78
2023/05/19 06:28:20;;;;;;;4.72;2.30;;;;;;;;;;5031453;28;20065;-77
2023/05/19 06:30:45;;;;;;;7.93;2.75;;;;;;;;;;5030214;28;20033;-78
2023/05/19 06:33:39;;;;;;;6.40;2.75;;;;;;;;;;5023361;28;20041;-78
2023/05/19 06:36:07;;;;;;;5.20;2.50;;;;;;;;;;5029062;28;20107;-78
2023/05/19 06:38:32;;;;;;;5.43;2.63;;;;;;;;;;5039113;28;20072;-78
2023/05/19 06:40:58;;;;;;;4.95;2.38;;;;;;;;;;5031079;28;20029;-78
2023/05/19 06:43:24;;;;;;;6.90;2.60;;;;;;;;;;5031256;28;20055;-78
2023/05/19 06:45:54;;;;;;;5.97;2.70;;;;;;;;;;4995480;28;1031087;-78
2023/05/19 06:48:21;;;;;;;4.57;2.35;;;;;;;;;;5028337;28;20036;-78
2023/05/19 06:50:46;;;;;;;6.25;2.47;;;;;;;;;;5030960;28;20030;-78
2023/05/19 06:53:12;;;;;;;5.43;2.33;;;;;;;;;;5029787;28;20091;-79
2023/05/19 06:55:37;;;;;;;4.88;2.40;;;;;;;;;;5032146;28;20116;-78
2023/05/19 06:58:03;;;;;;;5.43;2.30;;;;;;;;;;5033331;28;20057;-78
2023/05/19 07:00:28;;;;;;;4.68;2.13;;;;;;;;;;5030892;28;20061;-79
2023/05/19 07:02:53;;;;;;;4.22;2.20;;;;;;;;;;5032376;28;20045;-79
2023/05/19 07:05:19;;;;;;;4.22;2.15;;;;;;;;;;5031749;28;20025;-79
2023/05/19 07:07:49;;;;;;;5.78;2.88;;;;;;;;;;5039273;28;20033;-79
2023/05/19 07:10:20;;;;;;;6.38;2.55;;;;;;;;;;5024901;28;20124;-79
2023/05/19 07:12:45;;;;;;;5.90;2.30;;;;;;;;;;5031775;28;20079;-78
2023/05/19 07:15:11;;;;;;;7.10;2.38;;;;;;;;;;5031725;28;20026;-78
2023/05/19 07:17:36;;;;;;;5.30;2.55;;;;;;;;;;5031821;28;20025;-78
2023/05/19 07:20:05;;;;;;;4.20;2.08;;;;;;;;;;5032869;28;20112;-79
2023/05/19 07:22:33;;;;;;;7.03;2.60;;;;;;;;;;5033147;28;20084;-79
2023/05/19 07:24:59;;;;;;;4.07;2.10;;;;;;;;;;5021595;28;20029;-78
2023/05/19 07:27:26;;;;;;;5.05;2.40;;;;;;;;;;5031024;28;20033;-79
2023/05/19 07:29:51;;;;;;;5.10;2.28;;;;;;;;;;5032719;28;20040;-78
2023/05/19 07:32:16;;;;;;;4.60;2.25;;;;;;;;;;5032641;28;20104;-79
2023/05/19 07:34:42;;;;;;;5.00;2.30;;;;;;;;;;5032699;28;20033;-79
2023/05/19 07:37:07;;;;;;;7.00;2.65;;;;;;;;;;5032462;28;20502;-79
2023/05/19 07:39:32;;;;;;;4.78;2.15;;;;;;;;;;5029772;28;20041;-79
2023/05/19 07:41:58;;;;;;;5.50;2.60;;;;;;;;;;5031338;28;20026;-78
2023/05/19 07:44:23;;;;;;;7.68;2.40;;;;;;;;;;5031224;28;20029;-79
2023/05/19 07:46:48;;;;;;;6.28;2.10;;;;;;;;;;5032221;28;20419;-79
2023/05/19 07:49:13;;;;;;;7.13;2.35;;;;;;;;;;5027830;28;21028;-79
2023/05/19 07:51:40;;;;;;;8.18;2.55;;;;;;;;;;5032218;28;20385;-79
2023/05/19 07:54:07;;;;;;;4.53;2.03;;;;;;;;;;5032265;28;20087;-79
2023/05/19 07:56:32;;;;;;;4.53;2.08;;;;;;;;;;5032578;28;20361;-79
2023/05/19 07:58:57;;;;;;;5.63;2.08;;;;;;;;;;5032110;28;20029;-79
2023/05/19 08:01:22;;;;;;;7.97;2.00;;;;;;;;;;5032285;28;20385;-78
2023/05/19 08:03:48;;;;;;;4.78;1.95;;;;;;;;;;5032305;28;20513;-79
2023/05/19 08:06:13;;;;;;;5.70;2.40;;;;;;;;;;5032277;28;20400;-79
2023/05/19 08:08:38;;;;;;;5.53;2.00;;;;;;;;;;5030732;28;20033;-79
2023/05/19 08:11:03;;;;;;;5.32;1.90;;;;;;;;;;5030752;28;20065;-79
2023/05/19 08:13:29;;;;;;;5.50;2.20;;;;;;;;;;5032076;28;20032;-78
2023/05/19 08:15:58;;;;;;;6.07;2.20;;;;;;;;;;5032127;28;20100;-79
2023/05/19 08:18:23;;;;;;;7.15;1.77;;;;;;;;;;5027078;28;20508;-80
2023/05/19 08:20:49;;;;;;;3.75;1.85;;;;;;;;;;5031727;28;20029;-78
2023/05/19 08:23:14;;;;;;;5.82;1.88;;;;;;;;;;5029729;28;20061;-79
2023/05/19 08:25:39;;;;;;;5.07;1.90;;;;;;;;;;5031939;28;20047;-79
2023/05/19 08:28:04;;;;;;;3.85;2.03;;;;;;;;;;5032062;28;20284;-80
2023/05/19 08:30:30;;;;;;;5.10;1.60;;;;;;;;;;5032055;28;20030;-79
2023/05/19 08:32:55;;;;;;;4.82;2.08;;;;;;;;;;5032252;28;20076;-78
2023/05/19 08:35:20;;;;;;;6.70;2.28;;;;;;;;;;5030898;28;20060;-79
2023/05/19 08:37:46;;;;;;;6.07;1.73;;;;;;;;;;5032025;28;20068;-79
2023/05/19 08:40:15;;;;;;;5.22;1.80;;;;;;;;;;5030611;28;20113;-78
2023/05/19 08:42:41;;;;;;;6.57;1.92;;;;;;;;;;5030897;28;20034;-79
2023/05/19 08:45:06;;;;;;;6.63;1.95;;;;;;;;;;5031827;28;20030;-79
2023/05/19 08:47:31;;;;;;;7.38;1.80;;;;;;;;;;5031906;28;20041;-78
2023/05/19 08:50:02;;;;;;;4.13;1.45;;;;;;;;;;5028553;28;20041;-79
2023/05/19 08:52:41;;;;;;;5.57;1.65;;;;;;;;;;5030677;28;20117;-79
2023/05/19 08:55:20;;;;;;;4.85;1.83;;;;;;;;;;5027924;28;20025;-80
2023/05/19 08:57:46;;;;;;;5.00;1.40;;;;;;;;;;5031536;28;20021;-79
2023/05/19 09:00:12;;;;;;;5.40;1.73;;;;;;;;;;5027987;28;20029;-79
2023/05/19 09:02:37;;;;;;;4.95;1.83;;;;;;;;;;5045496;23;20049;-75
2023/05/19 09:05:04;;;;;;;3.35;1.33;;;;;;;;;;5028223;28;20053;-75
2023/05/19 09:07:30;;;;;;;5.50;1.80;;;;;;;;;;5023136;28;20033;-75
2023/05/19 09:09:56;;;;;;;4.65;1.80;;;;;;;;;;5019670;28;20121;-75
2023/05/19 09:12:21;;;;;;;4.83;1.47;;;;;;;;;;5022324;28;20118;-75
2023/05/19 09:14:46;;;;;;;4.45;1.58;;;;;;;;;;5023197;28;20824;-75
2023/05/19 09:17:11;;;;;;;6.07;1.73;;;;;;;;;;5023098;28;20104;-75
2023/05/19 09:19:41;;;;;;;5.43;1.77;;;;;;;;;;5019328;28;20480;-75
2023/05/19 09:22:06;;;;;;;3.22;1.52;;;;;;;;;;5019145;28;20034;-75
2023/05/19 09:24:32;;;;;;;6.63;1.67;;;;;;;;;;5023037;28;20027;-75
2023/05/19 09:26:58;;;;;;;6.15;1.40;;;;;;;;;;5024631;28;20428;-75
2023/05/19 09:29:24;;;;;;;4.57;1.73;;;;;;;;;;5022718;28;20042;-75
2023/05/19 09:31:50;;;;;;;2.60;1.20;;;;;;;;;;5022382;28;20096;-75
2023/05/19 09:34:15;;;;;;;5.57;1.60;;;;;;;;;;5020288;28;20036;-75
2023/05/19 09:36:41;;;;;;;5.90;1.48;;;;;;;;;;5023599;28;20029;-75
2023/05/19 09:39:13;;;;;;;3.30;1.70;;;;;;;;;;5021707;28;20029;-75
2023/05/19 09:41:38;;;;;;;3.33;1.70;;;;;;;;;;5020840;28;20029;-75
2023/05/19 09:44:04;;;;;;;3.47;1.20;;;;;;;;;;5020878;28;20044;-75
2023/05/19 09:46:29;;;;;;;4.75;1.55;;;;;;;;;;5021033;28;20490;-75
2023/05/19 09:48:57;;;;;;;4.90;1.20;;;;;;;;;;5020546;28;20030;-75
2023/05/19 09:51:23;;;;;;;3.70;1.20;;;;;;;;;;5023694;28;20026;-75
2023/05/19 09:53:48;;;;;;;2.83;1.42;;;;;;;;;;5023750;28;20499;-75
2023/05/19 09:56:14;;;;;;;3.80;1.60;;;;;;;;;;5025345;28;20026;-75
2023/05/19 09:58:40;;;;;;;5.80;2.05;;;;;;;;;;5030074;28;20480;-75
2023/05/19 10:01:07;;;;;;;4.03;1.70;;;;;;;;;;5022813;28;20412;-75
2023/05/19 10:03:32;;;;;;;4.50;1.40;;;;;;;;;;5025663;28;20061;-75
2023/05/19 10:05:59;;;;;;;3.78;1.20;;;;;;;;;;5022947;28;20057;-75
2023/05/19 10:08:26;;;;;;;3.15;1.40;;;;;;;;;;5029504;28;20044;-75
2023/05/19 10:10:51;;;;;;;3.72;1.60;;;;;;;;;;5024396;28;20104;-75
2023/05/19 10:13:17;;;;;;;7.72;1.70;;;;;;;;;;5025919;28;20080;-75
2023/05/19 10:15:42;;;;;;;4.05;1.33;;;;;;;;;;5022390;28;20029;-75
2023/05/19 10:18:08;;;;;;;3.63;1.48;;;;;;;;;;5025649;28;20057;-75
2023/05/19 10:20:33;;;;;;;5.72;1.38;;;;;;;;;;5024650;28;20034;-75
2023/05/19 10:22:59;;;;;;;3.45;1.15;;;;;;;;;;5025827;28;20033;-75
2023/05/19 10:25:24;;;;;;;2.42;1.30;;;;;;;;;;5022546;28;20033;-75
2023/05/19 10:27:58;;;;;;;2.95;1.40;;;;;;;;;;5025351;28;20030;-75
2023/05/19 10:30:43;;;;;;;3.42;1.33;;;;;;;;;;5026833;28;20060;-75
2023/05/19 10:33:10;;;;;;;4.45;1.52;;;;;;;;;;5025083;28;20488;-75
2023/05/19 10:35:57;;;;;;;5.45;1.33;;;;;;;;;;5025807;28;20064;-75
2023/05/19 10:38:37;;;;;;;3.20;1.10;;;;;;;;;;5021901;28;20072;-76
2023/05/19 10:41:10;;;;;;;5.97;1.73;;;;;;;;;;5023906;28;20411;-76
2023/05/19 10:43:43;;;;;;;5.45;1.75;;;;;;;;;;5025003;28;20065;-75
2023/05/19 10:46:09;;;;;;;3.97;1.70;;;;;;;;;;5024024;28;20069;-76
2023/05/19 10:48:37;;;;;;;4.50;1.30;;;;;;;;;;5024977;28;20069;-75
2023/05/19 10:51:03;;;;;;;4.07;1.60;;;;;;;;;;5025115;28;20025;-76
2023/05/19 10:53:31;;;;;;;2.78;1.15;;;;;;;;;;5022407;28;20504;-76
2023/05/19 10:56:01;;;;;;;3.38;1.30;;;;;;;;;;5023856;28;20053;-76
2023/05/19 10:58:35;;;;;;;3.63;1.52;;;;;;;;;;5020516;28;20586;-76
2023/05/19 11:01:01;;;;;;;4.35;1.52;;;;;;;;;;5027952;28;20399;-76
2023/05/19 11:03:27;;;;;;;7.17;1.53;;;;;;;;;;5021964;28;20045;-76
2023/05/19 11:06:13;;;;;;;3.63;1.35;;;;;;;;;;5025076;28;20291;-76
2023/05/19 11:08:38;;;;;;;3.50;1.52;;;;;;;;;;5025388;28;20091;-76
2023/05/19 11:11:15;;;;;;;6.30;1.60;;;;;;;;;;5023542;28;20038;-76
2023/05/19 11:13:42;;;;;;;4.28;1.48;;;;;;;;;;5026103;28;20037;-75
2023/05/19 11:16:08;;;;;;;5.68;1.80;;;;;;;;;;5024942;28;20029;-76
2023/05/19 11:18:33;;;;;;;8.00;2.15;;;;;;;;;;5023036;28;20040;-76
2023/05/19 11:21:00;;;;;;;3.42;1.65;;;;;;;;;;5025717;28;20032;-75
2023/05/19 11:23:26;;;;;;;4.63;1.35;;;;;;;;;;5023453;28;20044;-76
2023/05/19 11:25:53;;;;;;;3.23;1.40;;;;;;;;;;5022238;28;20026;-76
2023/05/19 11:28:26;;;;;;;4.18;1.52;;;;;;;;;;5024983;28;20276;-76
2023/05/19 11:30:53;;;;;;;2.75;1.48;;;;;;;;;;5023397;28;20033;-76
2023/05/19 11:33:19;;;;;;;3.30;1.60;;;;;;;;;;5024536;28;20065;-76
2023/05/19 11:35:49;;;;;;;4.63;1.42;;;;;;;;;;5021392;28;20120;-76
2023/05/19 11:38:15;;;;;;;4.50;1.63;;;;;;;;;;5024472;28;20033;-76
2023/05/19 11:40:40;;;;;;;3.13;1.40;;;;;;;;;;5022738;28;20197;-76
2023/05/19 11:43:06;;;;;;;3.83;1.80;;;;;;;;;;5024164;28;20120;-76
2023/05/19 11:45:31;;;;;;;2.93;1.30;;;;;;;;;;5024347;28;20033;-76
2023/05/19 11:47:57;;;;;;;2.72;1.20;;;;;;;;;;5020901;28;20040;-76
2023/05/19 11:50:23;;;;;;;4.68;1.23;;;;;;;;;;5025394;28;20033;-76
2023/05/19 11:52:49;;;;;;;2.63;1.33;;;;;;;;;;5024472;28;20041;-76
2023/05/19 11:55:21;;;;;;;2.67;1.50;;;;;;;;;;5021204;28;20034;-76
2023/05/19 11:57:46;;;;;;;;;;;;;;;;;;5023246;28;20034;-76
2023/05/19 12:00:11;;;;;;;2.38;1.23;;;;;;;;;;5022145;28;20004;-76
2023/05/19 12:02:36;;;;;;;2.83;1.52;;;;;;;;;;5023866;28;20499;-76
2023/05/19 12:05:02;;;;;;;3.80;1.40;;;;;;;;;;5022028;28;20036;-76
2023/05/19 12:07:27;;;;;;;2.45;1.27;;;;;;;;;;5021963;28;20375;-76
2023/05/19 12:09:54;;;;;;;2.05;1.13;;;;;;;;;;5021872;28;20034;-76
2023/05/19 12:12:20;;;;;;;3.17;1.38;;;;;;;;;;5020313;28;20101;-78
2023/05/19 12:14:46;;;;;;;4.35;1.67;;;;;;;;;;5022187;28;20033;-76
2023/05/19 12:17:22;;;;;;;2.40;1.50;;;;;;;;;;5021297;28;20025;-76
2023/05/19 12:19:48;;;;;;;2.72;1.30;;;;;;;;;;5026714;28;20116;-76
2023/05/19 12:22:14;;;;;;;3.38;1.10;;;;;;;;;;5023709;28;20093;-76
2023/05/19 12:24:41;;;;;;;3.55;1.30;;;;;;;;;;5023182;28;20037;-76
2023/05/19 12:27:11;;;;;;;4.10;1.17;;;;;;;;;;5019719;28;20042;-76
2023/05/19 12:29:37;;;;;;;3.00;1.48;;;;;;;;;;5021041;28;20049;-76
2023/05/19 12:32:02;;;;;;;3.85;1.48;;;;;;;;;;5023012;28;20029;-76
2023/05/19 12:34:27;;;;;;;2.90;1.20;;;;;;;;;;5021518;28;20135;-76
2023/05/19 12:36:52;;;;;;;2.67;1.27;;;;;;;;;;5021754;28;20109;-76
2023/05/19 12:39:18;;;;;;;4.80;1.40;;;;;;;;;;5021286;28;20399;-76
2023/05/19 12:41:44;;;;;;;2.58;1.00;;;;;;;;;;5021521;28;20829;-76
2023/05/19 12:44:15;;;;;;;2.75;1.20;;;;;;;;;;5022245;28;20395;-76
2023/05/19 12:46:41;;;;;;;2.58;1.13;;;;;;;;;;5020429;28;20034;-76
2023/05/19 12:49:06;;;;;;;2.95;1.38;;;;;;;;;;5022291;28;20491;-76
2023/05/19 12:51:31;;;;;;;2.05;1.20;;;;;;;;;;5020200;28;20546;-76
2023/05/19 12:53:57;;;;;;;4.15;1.42;;;;;;;;;;5022598;28;20056;-76
2023/05/19 12:56:25;;;;;;;4.50;1.20;;;;;;;;;;5022828;28;20026;-76
2023/05/19 12:58:52;;;;;;;3.53;1.67;;;;;;;;;;5023004;28;20284;-76
2023/05/19 13:01:17;;;;;;;6.82;1.38;;;;;;;;;;5019060;28;20034;-76
2023/05/19 13:03:42;;;;;;;2.53;1.17;;;;;;;;;;5023218;28;20087;-75
2023/05/19 13:06:08;;;;;;;2.70;1.10;;;;;;;;;;5023150;28;20419;-76
2023/05/19 13:08:34;;;;;;;3.00;1.27;;;;;;;;;;5023084;28;20037;-76
2023/05/19 13:10:59;;;;;;;4.15;1.52;;;;;;;;;;5019337;28;20423;-76
2023/05/19 13:13:24;;;;;;;2.50;1.20;;;;;;;;;;5022640;28;20672;-76
2023/05/19 13:15:49;;;;;;;4.40;1.90;;;;;;;;;;5023025;28;20075;-76
2023/05/19 13:18:15;;;;;;;3.67;1.30;;;;;;;;;;5019706;28;20709;-76
2023/05/19 13:20:41;;;;;;;2.15;1.17;;;;;;;;;;5022840;28;20116;-76
2023/05/19 13:23:06;;;;;;;4.70;1.52;;;;;;;;;;5021861;28;20043;-76
2023/05/19 13:25:32;;;;;;;4.97;2.15;;;;;;;;;;5022825;28;20092;-76
2023/05/19 13:28:00;;;;;;;2.25;1.10;;;;;;;;;;5025771;28;20091;-76
2023/05/19 13:30:25;;;;;;;3.17;1.17;;;;;;;;;;5022875;28;20029;-76
2023/05/19 13:32:51;;;;;;;2.60;1.20;;;;;;;;;;5026451;28;20053;-76
2023/05/19 13:35:16;;;;;;;3.17;1.30;;;;;;;;;;5024376;28;20025;-76
2023/05/19 13:37:42;;;;;;;4.53;1.48;;;;;;;;;;5030553;28;20034;-75
2023/05/19 13:40:07;;;;;;;2.88;1.15;;;;;;;;;;5024856;28;20022;-76
2023/05/19 13:42:33;;;;;;;3.97;1.48;;;;;;;;;;5024955;28;20025;-76
2023/05/19 13:44:59;;;;;;;2.63;1.15;;;;;;;;;;5024665;28;20034;-76
2023/05/19 13:47:24;;;;;;;3.35;1.27;;;;;;;;;;5025431;28;20040;-76
2023/05/19 13:49:50;;;;;;;2.83;1.50;;;;;;;;;;5024672;28;20029;-76
2023/05/19 13:52:15;;;;;;;2.75;1.40;;;;;;;;;;5024227;28;20064;-76
2023/05/19 13:54:40;;;;;;;3.70;1.60;;;;;;;;;;5023656;28;20042;-76
2023/05/19 13:57:06;;;;;;;3.07;1.50;;;;;;;;;;5024306;28;20079;-76
2023/05/19 13:59:31;;;;;;;3.97;1.50;;;;;;;;;;5026145;28;20265;-76
2023/05/19 14:01:56;;;;;;;4.88;1.40;;;;;;;;;;5023602;28;20044;-76
2023/05/19 14:04:23;;;;;;;3.22;1.60;;;;;;;;;;5025238;28;20037;-76
2023/05/19 14:06:48;;;;;;;2.78;1.42;;;;;;;;;;5023501;28;20112;-76
2023/05/19 14:09:13;;;;;;;4.28;1.60;;;;;;;;;;5029381;28;20112;-76
2023/05/19 14:11:39;;;;;;;4.13;2.20;;;;;;;;;;5023102;28;20037;-76
2023/05/19 14:14:04;;;;;;;3.25;1.50;;;;;;;;;;5025224;28;20071;-76
2023/05/19 14:16:29;;;;;;;2.97;2.15;;;;;;;;;;5023020;28;20472;-76
2023/05/19 14:18:55;;;;;;;3.20;1.30;;;;;;;;;;5028831;28;20022;-76
2023/05/19 14:21:20;;;;;;;2.67;1.48;;;;;;;;;;5022756;28;20299;-76
2023/05/19 14:23:45;;;;;;;3.70;2.13;;;;;;;;;;5025389;28;20156;-76
2023/05/19 14:26:11;;;;;;;3.83;1.83;;;;;;;;;;5024645;28;20508;-76
2023/05/19 14:28:36;;;;;;;2.23;1.20;;;;;;;;;;5021861;28;20030;-76
2023/05/19 14:31:01;;;;;;;3.35;1.80;;;;;;;;;;5028793;28;20029;-76
2023/05/19 14:33:27;;;;;;;3.58;2.30;;;;;;;;;;5025410;28;20044;-76
2023/05/19 14:35:52;;;;;;;3.75;2.35;;;;;;;;;;5022120;28;20487;-76
2023/05/19 14:38:17;;;;;;;2.97;2.28;;;;;;;;;;5028983;28;20018;-76
2023/05/19 14:40:43;;;;;;;6.95;2.97;;;;;;;;;;5022183;28;20385;-76
2023/05/19 14:43:08;;;;;;;4.32;2.35;;;;;;;;;;5029029;28;20666;-76